sensor_id;sensor_type;location;lat;lon;timestamp;pressure;altitude;pressure_sealevel;temperature;humidity
23574;BME280;11965;53.640;10.050;2023-12-20T00:01:01;100805.81;;;3.98;100.00
23574;BME280;11965;53.640;10.050;2023-12-20T00:03:28;100800.66;;;3.95;100.00
23574;BME280;11965;53.640;10.050;2023-12-20T00:06:07;100797.34;;;3.91;100.00
23574;BME280;11965;53.640;10.050;2023-12-20T00:08:34;100806.31;;;3.84;100.00
23574;BME280;11965;53.640;10.050;2023-12-20T00:11:00;100798.16;;;4.02;100.00
23574;BME280;11965;53.640;10.050;2023-12-20T00:13:29;100802.56;;;3.85;100.00
23574;BME280;11965;53.640;10.050;2023-12-20T00:15:56;100793.34;;;3.76;100.00
23574;BME280;11965;53.640;10.050;2023-12-20T00:18:23;100789.81;;;3.66;100.00
23574;BME280;11965;53.640;10.050;2023-12-20T00:20:50;100790.41;;;3.60;100.00
23574;BME280;11965;53.640;10.050;2023-12-20T00:23:16;100789.75;;;3.75;100.00
23574;BME280;11965;53.640;10.050;2023-12-20T00:25:43;100780.13;;;3.71;100.00
23574;BME280;11965;53.640;10.050;2023-12-20T00:28:10;100784.66;;;3.63;100.00
23574;BME280;11965;53.640;10.050;2023-12-20T00:30:38;100786.47;;;3.99;100.00
23574;BME280;11965;53.640;10.050;2023-12-20T00:33:05;100772.56;;;4.29;100.00
23574;BME280;11965;53.640;10.050;2023-12-20T00:35:32;100780.28;;;4.15;100.00
23574;BME280;11965;53.640;10.050;2023-12-20T00:37:59;100770.72;;;4.02;100.00
23574;BME280;11965;53.640;10.050;2023-12-20T00:40:26;100772.09;;;4.33;100.00
23574;BME280;11965;53.640;10.050;2023-12-20T00:42:53;100769.81;;;4.29;100.00
23574;BME280;11965;53.640;10.050;2023-12-20T00:45:19;100759.88;;;4.28;100.00
23574;BME280;11965;53.640;10.050;2023-12-20T00:47:48;100754.78;;;4.33;100.00
23574;BME280;11965;53.640;10.050;2023-12-20T00:50:15;100755.25;;;4.46;100.00
23574;BME280;11965;53.640;10.050;2023-12-20T00:52:42;100744.63;;;4.69;100.00
23574;BME280;11965;53.640;10.050;2023-12-20T00:55:09;100730.81;;;4.61;100.00
23574;BME280;11965;53.640;10.050;2023-12-20T00:57:36;100746.13;;;4.63;100.00
23574;BME280;11965;53.640;10.050;2023-12-20T01:00:04;100744.88;;;4.76;100.00
23574;BME280;11965;53.640;10.050;2023-12-20T01:02:31;100727.38;;;4.59;100.00
23574;BME280;11965;53.640;10.050;2023-12-20T01:05:00;100743.91;;;4.67;100.00
23574;BME280;11965;53.640;10.050;2023-12-20T01:07:26;100747.84;;;4.64;100.00
23574;BME280;11965;53.640;10.050;2023-12-20T01:09:53;100744.09;;;4.65;100.00
23574;BME280;11965;53.640;10.050;2023-12-20T01:12:20;100753.25;;;4.56;100.00
23574;BME280;11965;53.640;10.050;2023-12-20T01:14:47;100752.19;;;4.49;100.00
23574;BME280;11965;53.640;10.050;2023-12-20T01:17:14;100738.00;;;4.36;100.00
23574;BME280;11965;53.640;10.050;2023-12-20T01:19:41;100733.59;;;4.25;100.00
23574;BME280;11965;53.640;10.050;2023-12-20T01:22:09;100724.19;;;4.10;100.00
23574;BME280;11965;53.640;10.050;2023-12-20T01:24:36;100727.00;;;4.18;100.00
23574;BME280;11965;53.640;10.050;2023-12-20T01:27:03;100739.78;;;4.09;100.00
23574;BME280;11965;53.640;10.050;2023-12-20T01:29:30;100741.00;;;3.97;100.00
23574;BME280;11965;53.640;10.050;2023-12-20T01:31:57;100736.28;;;3.89;100.00
23574;BME280;11965;53.640;10.050;2023-12-20T01:34:23;100738.25;;;3.79;100.00
23574;BME280;11965;53.640;10.050;2023-12-20T01:36:50;100732.50;;;3.72;100.00
23574;BME280;11965;53.640;10.050;2023-12-20T01:39:18;100738.91;;;3.63;100.00
23574;BME280;11965;53.640;10.050;2023-12-20T01:41:45;100736.50;;;3.78;100.00
23574;BME280;11965;53.640;10.050;2023-12-20T01:44:12;100726.78;;;3.66;100.00
23574;BME280;11965;53.640;10.050;2023-12-20T01:46:39;100721.22;;;3.75;100.00
23574;BME280;11965;53.640;10.050;2023-12-20T01:49:06;100709.91;;;3.88;100.00
23574;BME280;11965;53.640;10.050;2023-12-20T01:51:35;100709.63;;;4.09;100.00
23574;BME280;11965;53.640;10.050;2023-12-20T01:54:04;100716.75;;;4.20;100.00
23574;BME280;11965;53.640;10.050;2023-12-20T01:56:33;100721.66;;;4.34;100.00
23574;BME280;11965;53.640;10.050;2023-12-20T01:59:01;100712.34;;;4.45;100.00
23574;BME280;11965;53.640;10.050;2023-12-20T02:01:30;100710.31;;;4.47;100.00
23574;BME280;11965;53.640;10.050;2023-12-20T02:03:59;100709.34;;;4.56;100.00
23574;BME280;11965;53.640;10.050;2023-12-20T02:06:30;100704.50;;;4.50;100.00
23574;BME280;11965;53.640;10.050;2023-12-20T02:08:57;100702.66;;;4.59;100.00
23574;BME280;11965;53.640;10.050;2023-12-20T02:11:25;100704.03;;;4.37;100.00
23574;BME280;11965;53.640;10.050;2023-12-20T02:13:53;100693.44;;;4.42;100.00
23574;BME280;11965;53.640;10.050;2023-12-20T02:16:21;100695.03;;;4.27;100.00
23574;BME280;11965;53.640;10.050;2023-12-20T02:18:48;100691.41;;;4.44;100.00
23574;BME280;11965;53.640;10.050;2023-12-20T02:21:15;100687.56;;;4.37;100.00
23574;BME280;11965;53.640;10.050;2023-12-20T02:23:43;100680.66;;;4.51;100.00
23574;BME280;11965;53.640;10.050;2023-12-20T02:26:10;100687.81;;;4.43;100.00
23574;BME280;11965;53.640;10.050;2023-12-20T02:28:39;100689.06;;;4.31;100.00
23574;BME280;11965;53.640;10.050;2023-12-20T02:31:06;100676.59;;;4.37;100.00
23574;BME280;11965;53.640;10.050;2023-12-20T02:33:33;100686.47;;;4.48;100.00
23574;BME280;11965;53.640;10.050;2023-12-20T02:35:59;100681.03;;;4.56;100.00
23574;BME280;11965;53.640;10.050;2023-12-20T02:38:26;100676.31;;;4.66;100.00
23574;BME280;11965;53.640;10.050;2023-12-20T02:40:54;100665.28;;;4.58;100.00
23574;BME280;11965;53.640;10.050;2023-12-20T02:43:21;100672.22;;;4.70;100.00
23574;BME280;11965;53.640;10.050;2023-12-20T02:45:48;100672.97;;;4.80;100.00
23574;BME280;11965;53.640;10.050;2023-12-20T02:48:15;100658.56;;;4.78;100.00
23574;BME280;11965;53.640;10.050;2023-12-20T02:50:42;100656.44;;;4.72;100.00
23574;BME280;11965;53.640;10.050;2023-12-20T02:53:09;100654.41;;;4.74;100.00
23574;BME280;11965;53.640;10.050;2023-12-20T02:55:35;100648.00;;;4.65;100.00
23574;BME280;11965;53.640;10.050;2023-12-20T02:58:04;100641.16;;;4.70;100.00
23574;BME280;11965;53.640;10.050;2023-12-20T03:00:30;100643.66;;;4.81;100.00
23574;BME280;11965;53.640;10.050;2023-12-20T03:02:57;100646.03;;;4.76;100.00
23574;BME280;11965;53.640;10.050;2023-12-20T03:05:25;100644.78;;;4.70;100.00
23574;BME280;11965;53.640;10.050;2023-12-20T03:07:52;100635.22;;;4.82;100.00
23574;BME280;11965;53.640;10.050;2023-12-20T03:10:19;100635.56;;;4.79;100.00
23574;BME280;11965;53.640;10.050;2023-12-20T03:12:45;100628.06;;;4.90;100.00
23574;BME280;11965;53.640;10.050;2023-12-20T03:15:14;100633.72;;;4.88;100.00
23574;BME280;11965;53.640;10.050;2023-12-20T03:17:41;100624.91;;;4.76;100.00
23574;BME280;11965;53.640;10.050;2023-12-20T03:20:08;100626.41;;;4.71;100.00
23574;BME280;11965;53.640;10.050;2023-12-20T03:22:35;100621.84;;;4.79;100.00
23574;BME280;11965;53.640;10.050;2023-12-20T03:25:02;100623.53;;;4.80;100.00
23574;BME280;11965;53.640;10.050;2023-12-20T03:27:29;100618.84;;;4.73;100.00
23574;BME280;11965;53.640;10.050;2023-12-20T03:29:55;100618.59;;;4.84;100.00
23574;BME280;11965;53.640;10.050;2023-12-20T03:32:24;100612.22;;;4.83;100.00
23574;BME280;11965;53.640;10.050;2023-12-20T03:34:51;100599.25;;;4.94;100.00
23574;BME280;11965;53.640;10.050;2023-12-20T03:37:17;100612.56;;;4.80;100.00
23574;BME280;11965;53.640;10.050;2023-12-20T03:39:44;100609.81;;;4.80;100.00
23574;BME280;11965;53.640;10.050;2023-12-20T03:42:11;100611.31;;;4.75;100.00
23574;BME280;11965;53.640;10.050;2023-12-20T03:44:38;100615.84;;;4.84;100.00
23574;BME280;11965;53.640;10.050;2023-12-20T03:47:06;100614.13;;;4.83;100.00
23574;BME280;11965;53.640;10.050;2023-12-20T03:49:34;100604.31;;;4.80;100.00
23574;BME280;11965;53.640;10.050;2023-12-20T03:52:03;100600.81;;;4.96;100.00
23574;BME280;11965;53.640;10.050;2023-12-20T03:54:30;100595.75;;;4.83;100.00
23574;BME280;11965;53.640;10.050;2023-12-20T03:56:56;100589.25;;;4.84;100.00
23574;BME280;11965;53.640;10.050;2023-12-20T03:59:23;100590.19;;;4.67;100.00
23574;BME280;11965;53.640;10.050;2023-12-20T04:01:50;100584.44;;;4.78;100.00
23574;BME280;11965;53.640;10.050;2023-12-20T04:04:17;100579.97;;;4.85;100.00
23574;BME280;11965;53.640;10.050;2023-12-20T04:06:45;100578.28;;;4.84;100.00
23574;BME280;11965;53.640;10.050;2023-12-20T04:09:12;100567.28;;;4.84;100.00
23574;BME280;11965;53.640;10.050;2023-12-20T04:11:39;100570.00;;;4.76;100.00
23574;BME280;11965;53.640;10.050;2023-12-20T04:14:06;100574.13;;;4.80;100.00
23574;BME280;11965;53.640;10.050;2023-12-20T04:16:33;100567.28;;;4.84;100.00
23574;BME280;11965;53.640;10.050;2023-12-20T04:19:00;100564.50;;;4.76;100.00
23574;BME280;11965;53.640;10.050;2023-12-20T04:21:26;100568.16;;;4.85;100.00
23574;BME280;11965;53.640;10.050;2023-12-20T04:23:55;100553.38;;;4.86;100.00
23574;BME280;11965;53.640;10.050;2023-12-20T04:26:22;100557.16;;;4.85;100.00
23574;BME280;11965;53.640;10.050;2023-12-20T04:28:49;100551.47;;;4.78;100.00
23574;BME280;11965;53.640;10.050;2023-12-20T04:31:15;100548.41;;;4.81;100.00
23574;BME280;11965;53.640;10.050;2023-12-20T04:33:42;100547.72;;;4.87;100.00
23574;BME280;11965;53.640;10.050;2023-12-20T04:36:09;100545.81;;;4.80;100.00
23574;BME280;11965;53.640;10.050;2023-12-20T04:38:36;100532.81;;;4.90;100.00
23574;BME280;11965;53.640;10.050;2023-12-20T04:41:04;100538.25;;;4.74;100.00
23574;BME280;11965;53.640;10.050;2023-12-20T04:43:31;100534.81;;;4.80;100.00
23574;BME280;11965;53.640;10.050;2023-12-20T04:45:58;100527.16;;;4.92;100.00
23574;BME280;11965;53.640;10.050;2023-12-20T04:48:25;100525.44;;;4.91;100.00
23574;BME280;11965;53.640;10.050;2023-12-20T04:50:52;100525.22;;;4.76;100.00
23574;BME280;11965;53.640;10.050;2023-12-20T04:53:18;100524.31;;;4.75;100.00
23574;BME280;11965;53.640;10.050;2023-12-20T04:55:45;100523.00;;;4.87;100.00
23574;BME280;11965;53.640;10.050;2023-12-20T04:58:13;100513.34;;;4.75;100.00
23574;BME280;11965;53.640;10.050;2023-12-20T05:00:41;100516.09;;;4.75;100.00
23574;BME280;11965;53.640;10.050;2023-12-20T05:03:07;100515.94;;;4.77;100.00
23574;BME280;11965;53.640;10.050;2023-12-20T05:05:34;100511.19;;;4.87;100.00
23574;BME280;11965;53.640;10.050;2023-12-20T05:08:01;100513.59;;;4.90;100.00
23574;BME280;11965;53.640;10.050;2023-12-20T05:10:29;100509.28;;;4.87;100.00
23574;BME280;11965;53.640;10.050;2023-12-20T05:12:56;100508.63;;;4.94;100.00
23574;BME280;11965;53.640;10.050;2023-12-20T05:15:24;100500.72;;;4.91;100.00
23574;BME280;11965;53.640;10.050;2023-12-20T05:17:51;100511.50;;;4.84;100.00
23574;BME280;11965;53.640;10.050;2023-12-20T05:20:18;100508.13;;;4.98;100.00
23574;BME280;11965;53.640;10.050;2023-12-20T05:22:45;100512.44;;;5.09;100.00
23574;BME280;11965;53.640;10.050;2023-12-20T05:25:13;100518.31;;;5.14;100.00
23574;BME280;11965;53.640;10.050;2023-12-20T05:27:39;100497.00;;;5.08;100.00
23574;BME280;11965;53.640;10.050;2023-12-20T05:30:07;100494.56;;;5.05;100.00
23574;BME280;11965;53.640;10.050;2023-12-20T05:32:36;100490.59;;;4.91;100.00
23574;BME280;11965;53.640;10.050;2023-12-20T05:35:03;100497.00;;;5.08;100.00
23574;BME280;11965;53.640;10.050;2023-12-20T05:37:30;100508.00;;;5.16;100.00
23574;BME280;11965;53.640;10.050;2023-12-20T05:39:57;100498.22;;;5.14;100.00
23574;BME280;11965;53.640;10.050;2023-12-20T05:42:24;100502.69;;;5.15;100.00
23574;BME280;11965;53.640;10.050;2023-12-20T05:44:50;100504.06;;;5.19;100.00
23574;BME280;11965;53.640;10.050;2023-12-20T05:47:17;100498.94;;;5.24;100.00
23574;BME280;11965;53.640;10.050;2023-12-20T05:49:46;100501.84;;;5.22;100.00
23574;BME280;11965;53.640;10.050;2023-12-20T05:52:12;100496.34;;;5.22;100.00
23574;BME280;11965;53.640;10.050;2023-12-20T05:54:40;100498.72;;;5.17;100.00
23574;BME280;11965;53.640;10.050;2023-12-20T05:57:07;100492.38;;;5.17;100.00
23574;BME280;11965;53.640;10.050;2023-12-20T05:59:34;100488.78;;;5.24;100.00
23574;BME280;11965;53.640;10.050;2023-12-20T06:02:00;100482.25;;;5.17;100.00
23574;BME280;11965;53.640;10.050;2023-12-20T06:04:27;100479.84;;;5.22;100.00
23574;BME280;11965;53.640;10.050;2023-12-20T06:06:56;100492.19;;;5.18;100.00
23574;BME280;11965;53.640;10.050;2023-12-20T06:09:22;100480.22;;;5.27;100.00
23574;BME280;11965;53.640;10.050;2023-12-20T06:11:50;100482.09;;;5.19;100.00
23574;BME280;11965;53.640;10.050;2023-12-20T06:14:17;100466.97;;;5.23;100.00
23574;BME280;11965;53.640;10.050;2023-12-20T06:16:45;100472.97;;;5.18;100.00
23574;BME280;11965;53.640;10.050;2023-12-20T06:19:12;100460.47;;;5.24;100.00
23574;BME280;11965;53.640;10.050;2023-12-20T06:21:39;100451.88;;;5.19;100.00
23574;BME280;11965;53.640;10.050;2023-12-20T06:24:07;100455.81;;;5.16;100.00
23574;BME280;11965;53.640;10.050;2023-12-20T06:26:35;100444.47;;;5.03;100.00
23574;BME280;11965;53.640;10.050;2023-12-20T06:29:02;100438.78;;;5.13;100.00
23574;BME280;11965;53.640;10.050;2023-12-20T06:31:29;100451.69;;;5.20;100.00
23574;BME280;11965;53.640;10.050;2023-12-20T06:33:55;100447.72;;;5.15;100.00
23574;BME280;11965;53.640;10.050;2023-12-20T06:36:25;100443.63;;;5.19;100.00
23574;BME280;11965;53.640;10.050;2023-12-20T06:38:52;100448.09;;;5.28;100.00
23574;BME280;11965;53.640;10.050;2023-12-20T06:41:20;100446.88;;;5.22;100.00
23574;BME280;11965;53.640;10.050;2023-12-20T06:43:50;100441.91;;;5.26;100.00
23574;BME280;11965;53.640;10.050;2023-12-20T06:46:17;100434.69;;;5.17;100.00
23574;BME280;11965;53.640;10.050;2023-12-20T06:48:44;100432.28;;;5.14;100.00
23574;BME280;11965;53.640;10.050;2023-12-20T06:51:13;100438.13;;;5.11;100.00
23574;BME280;11965;53.640;10.050;2023-12-20T06:53:40;100422.50;;;5.19;100.00
23574;BME280;11965;53.640;10.050;2023-12-20T06:56:07;100428.16;;;5.09;100.00
23574;BME280;11965;53.640;10.050;2023-12-20T06:58:37;100422.16;;;5.14;100.00
23574;BME280;11965;53.640;10.050;2023-12-20T07:01:04;100418.03;;;5.18;100.00
23574;BME280;11965;53.640;10.050;2023-12-20T07:03:31;100426.94;;;5.12;100.00
23574;BME280;11965;53.640;10.050;2023-12-20T07:05:58;100416.66;;;5.14;100.00
23574;BME280;11965;53.640;10.050;2023-12-20T07:08:25;100414.41;;;5.01;100.00
23574;BME280;11965;53.640;10.050;2023-12-20T07:10:52;100407.03;;;5.10;100.00
23574;BME280;11965;53.640;10.050;2023-12-20T07:13:18;100413.72;;;5.16;100.00
23574;BME280;11965;53.640;10.050;2023-12-20T07:15:47;100420.59;;;5.20;100.00
23574;BME280;11965;53.640;10.050;2023-12-20T07:18:14;100420.25;;;5.23;100.00
23574;BME280;11965;53.640;10.050;2023-12-20T07:20:41;100419.91;;;5.18;100.00
23574;BME280;11965;53.640;10.050;2023-12-20T07:23:08;100416.81;;;5.21;100.00
23574;BME280;11965;53.640;10.050;2023-12-20T07:25:37;100418.56;;;5.14;100.00
23574;BME280;11965;53.640;10.050;2023-12-20T07:28:05;100418.56;;;5.14;100.00
23574;BME280;11965;53.640;10.050;2023-12-20T07:30:32;100408.22;;;5.16;100.00
23574;BME280;11965;53.640;10.050;2023-12-20T07:33:00;100398.78;;;5.26;100.00
23574;BME280;11965;53.640;10.050;2023-12-20T07:35:28;100405.84;;;5.29;100.00
23574;BME280;11965;53.640;10.050;2023-12-20T07:37:55;100413.56;;;5.34;100.00
23574;BME280;11965;53.640;10.050;2023-12-20T07:40:22;100402.56;;;5.34;100.00
23574;BME280;11965;53.640;10.050;2023-12-20T07:42:50;100392.63;;;5.24;100.00
23574;BME280;11965;53.640;10.050;2023-12-20T07:45:17;100392.44;;;5.34;100.00
23574;BME280;11965;53.640;10.050;2023-12-20T07:47:44;100386.09;;;5.17;100.00
23574;BME280;11965;53.640;10.050;2023-12-20T07:50:12;100391.78;;;5.32;100.00
23574;BME280;11965;53.640;10.050;2023-12-20T07:52:39;100387.47;;;5.29;100.00
23574;BME280;11965;53.640;10.050;2023-12-20T07:55:07;100383.53;;;5.32;100.00
23574;BME280;11965;53.640;10.050;2023-12-20T07:57:34;100386.09;;;5.34;100.00
23574;BME280;11965;53.640;10.050;2023-12-20T08:00:01;100368.41;;;5.28;100.00
23574;BME280;11965;53.640;10.050;2023-12-20T08:02:30;100386.09;;;5.34;100.00
23574;BME280;11965;53.640;10.050;2023-12-20T08:04:57;100385.75;;;5.28;100.00
23574;BME280;11965;53.640;10.050;2023-12-20T08:07:25;100373.19;;;5.34;100.00
23574;BME280;11965;53.640;10.050;2023-12-20T08:09:52;100368.06;;;5.31;100.00
23574;BME280;11965;53.640;10.050;2023-12-20T08:12:20;100366.84;;;5.34;100.00
23574;BME280;11965;53.640;10.050;2023-12-20T08:14:47;100374.41;;;5.40;100.00
23574;BME280;11965;53.640;10.050;2023-12-20T08:17:14;100366.50;;;5.37;100.00
23574;BME280;11965;53.640;10.050;2023-12-20T08:19:42;100366.34;;;5.38;100.00
23574;BME280;11965;53.640;10.050;2023-12-20T08:22:08;100365.66;;;5.44;100.00
23574;BME280;11965;53.640;10.050;2023-12-20T08:24:37;100361.53;;;5.48;100.00
23574;BME280;11965;53.640;10.050;2023-12-20T08:27:04;100340.56;;;5.39;100.00
23574;BME280;11965;53.640;10.050;2023-12-20T08:29:31;100355.69;;;5.51;100.00
23574;BME280;11965;53.640;10.050;2023-12-20T08:31:58;100338.50;;;5.49;100.00
23574;BME280;11965;53.640;10.050;2023-12-20T08:34:25;100335.75;;;5.49;100.00
23574;BME280;11965;53.640;10.050;2023-12-20T08:36:52;100326.47;;;5.50;100.00
23574;BME280;11965;53.640;10.050;2023-12-20T08:39:19;100333.69;;;5.60;100.00
23574;BME280;11965;53.640;10.050;2023-12-20T08:41:47;100339.88;;;5.62;100.00
23574;BME280;11965;53.640;10.050;2023-12-20T08:44:14;100313.91;;;5.72;100.00
23574;BME280;11965;53.640;10.050;2023-12-20T08:46:41;100307.19;;;5.75;100.00
23574;BME280;11965;53.640;10.050;2023-12-20T08:49:08;100333.97;;;5.81;100.00
23574;BME280;11965;53.640;10.050;2023-12-20T08:51:35;100316.38;;;5.98;100.00
23574;BME280;11965;53.640;10.050;2023-12-20T08:54:05;100317.94;;;6.01;100.00
23574;BME280;11965;53.640;10.050;2023-12-20T08:56:33;100322.56;;;5.92;100.00
23574;BME280;11965;53.640;10.050;2023-12-20T08:59:01;100313.53;;;5.75;100.00
23574;BME280;11965;53.640;10.050;2023-12-20T09:01:28;100319.69;;;5.86;100.00
23574;BME280;11965;53.640;10.050;2023-12-20T09:03:55;100319.53;;;5.79;100.00
23574;BME280;11965;53.640;10.050;2023-12-20T09:06:22;100322.13;;;5.72;100.00
23574;BME280;11965;53.640;10.050;2023-12-20T09:08:49;100314.56;;;5.66;100.00
23574;BME280;11965;53.640;10.050;2023-12-20T09:11:16;100315.13;;;5.62;100.00
23574;BME280;11965;53.640;10.050;2023-12-20T09:13:43;100322.69;;;5.60;100.00
23574;BME280;11965;53.640;10.050;2023-12-20T09:16:12;100325.56;;;5.66;100.00
23574;BME280;11965;53.640;10.050;2023-12-20T09:18:41;100332.28;;;5.64;100.00
23574;BME280;11965;53.640;10.050;2023-12-20T09:21:08;100330.09;;;5.51;100.00
23574;BME280;11965;53.640;10.050;2023-12-20T09:23:35;100354.31;;;5.47;100.00
23574;BME280;11965;53.640;10.050;2023-12-20T09:26:03;100341.25;;;5.49;100.00
23574;BME280;11965;53.640;10.050;2023-12-20T09:28:30;100322.69;;;5.51;100.00
23574;BME280;11965;53.640;10.050;2023-12-20T09:31:03;100316.88;;;5.46;100.00
23574;BME280;11965;53.640;10.050;2023-12-20T09:33:32;100328.72;;;5.47;100.00
23574;BME280;11965;53.640;10.050;2023-12-20T09:35:59;100337.31;;;5.44;100.00
23574;BME280;11965;53.640;10.050;2023-12-20T09:38:26;100347.25;;;5.45;100.00
23574;BME280;11965;53.640;10.050;2023-12-20T09:40:54;100353.81;;;5.36;100.00
23574;BME280;11965;53.640;10.050;2023-12-20T09:43:24;100361.38;;;5.17;100.00
23574;BME280;11965;53.640;10.050;2023-12-20T09:45:53;100371.31;;;5.18;100.00
23574;BME280;11965;53.640;10.050;2023-12-20T09:48:20;100372.88;;;5.21;100.00
23574;BME280;11965;53.640;10.050;2023-12-20T09:50:49;100373.06;;;5.19;100.00
23574;BME280;11965;53.640;10.050;2023-12-20T09:53:16;100374.75;;;5.20;100.00
23574;BME280;11965;53.640;10.050;2023-12-20T09:55:44;100374.06;;;5.18;100.00
23574;BME280;11965;53.640;10.050;2023-12-20T09:58:11;100367.22;;;5.22;100.00
23574;BME280;11965;53.640;10.050;2023-12-20T10:00:38;100358.28;;;5.12;100.00
23574;BME280;11965;53.640;10.050;2023-12-20T10:03:06;100352.78;;;5.04;100.00
23574;BME280;11965;53.640;10.050;2023-12-20T10:05:34;100322.56;;;4.96;100.00
23574;BME280;11965;53.640;10.050;2023-12-20T10:08:04;100326.50;;;5.01;100.00
23574;BME280;11965;53.640;10.050;2023-12-20T10:10:31;100319.47;;;5.07;100.00
23574;BME280;11965;53.640;10.050;2023-12-20T10:13:02;100351.75;;;5.05;100.00
23574;BME280;11965;53.640;10.050;2023-12-20T10:15:30;100385.72;;;4.96;100.00
23574;BME280;11965;53.640;10.050;2023-12-20T10:17:57;100386.41;;;4.90;100.00
23574;BME280;11965;53.640;10.050;2023-12-20T10:20:24;100378.00;;;4.91;100.00
23574;BME280;11965;53.640;10.050;2023-12-20T10:22:52;100366.16;;;4.91;100.00
23574;BME280;11965;53.640;10.050;2023-12-20T10:25:22;100367.91;;;5.00;100.00
23574;BME280;11965;53.640;10.050;2023-12-20T10:27:50;100360.16;;;4.87;100.00
23574;BME280;11965;53.640;10.050;2023-12-20T10:30:17;100358.47;;;5.02;100.00
23574;BME280;11965;53.640;10.050;2023-12-20T10:32:44;100362.56;;;5.06;100.00
23574;BME280;11965;53.640;10.050;2023-12-20T10:35:11;100348.13;;;4.96;100.00
23574;BME280;11965;53.640;10.050;2023-12-20T10:37:38;100347.63;;;4.93;100.00
23574;BME280;11965;53.640;10.050;2023-12-20T10:40:06;100349.34;;;4.94;100.00
23574;BME280;11965;53.640;10.050;2023-12-20T10:42:36;100342.63;;;4.88;100.00
23574;BME280;11965;53.640;10.050;2023-12-20T10:45:05;100344.00;;;4.76;100.00
23574;BME280;11965;53.640;10.050;2023-12-20T10:47:32;100346.22;;;4.64;100.00
23574;BME280;11965;53.640;10.050;2023-12-20T10:50:01;100336.25;;;4.63;100.00
23574;BME280;11965;53.640;10.050;2023-12-20T10:52:29;100324.59;;;4.69;100.00
23574;BME280;11965;53.640;10.050;2023-12-20T10:54:59;100334.91;;;4.75;100.00
23574;BME280;11965;53.640;10.050;2023-12-20T10:57:27;100340.22;;;4.77;100.00
23574;BME280;11965;53.640;10.050;2023-12-20T11:00:01;100338.34;;;4.85;100.00
23574;BME280;11965;53.640;10.050;2023-12-20T11:02:32;100339.72;;;4.81;100.00
23574;BME280;11965;53.640;10.050;2023-12-20T11:05:08;100334.59;;;4.86;100.00
23574;BME280;11965;53.640;10.050;2023-12-20T11:07:42;100334.22;;;4.73;100.00
23574;BME280;11965;53.640;10.050;2023-12-20T11:10:18;100334.75;;;4.85;100.00
23574;BME280;11965;53.640;10.050;2023-12-20T11:12:51;100331.31;;;4.91;100.00
23574;BME280;11965;53.640;10.050;2023-12-20T11:15:21;100346.22;;;4.88;100.00
23574;BME280;11965;53.640;10.050;2023-12-20T11:17:54;100353.13;;;4.84;100.00
23574;BME280;11965;53.640;10.050;2023-12-20T11:20:23;100360.66;;;4.74;100.00
23574;BME280;11965;53.640;10.050;2023-12-20T11:22:54;100363.88;;;4.70;100.00
23574;BME280;11965;53.640;10.050;2023-12-20T11:25:21;100364.56;;;4.63;100.00
23574;BME280;11965;53.640;10.050;2023-12-20T11:28:09;100366.94;;;4.50;100.00
23574;BME280;11965;53.640;10.050;2023-12-20T11:30:43;100363.69;;;4.47;100.00
23574;BME280;11965;53.640;10.050;2023-12-20T11:33:13;100364.84;;;4.36;100.00
23574;BME280;11965;53.640;10.050;2023-12-20T11:35:40;100363.81;;;4.37;100.00
23574;BME280;11965;53.640;10.050;2023-12-20T11:38:08;100355.53;;;4.29;100.00
23574;BME280;11965;53.640;10.050;2023-12-20T11:40:35;100360.53;;;4.25;100.00
23574;BME280;11965;53.640;10.050;2023-12-20T11:43:03;100362.06;;;4.28;100.00
23574;BME280;11965;53.640;10.050;2023-12-20T11:45:31;100356.03;;;4.24;100.00
23574;BME280;11965;53.640;10.050;2023-12-20T11:47:59;100352.44;;;4.24;100.00
23574;BME280;11965;53.640;10.050;2023-12-20T11:50:26;100343.19;;;4.25;100.00
23574;BME280;11965;53.640;10.050;2023-12-20T11:52:54;100349.69;;;4.24;100.00
23574;BME280;11965;53.640;10.050;2023-12-20T11:55:21;100346.63;;;4.27;100.00
23574;BME280;11965;53.640;10.050;2023-12-20T11:57:48;100338.75;;;4.32;100.00
23574;BME280;11965;53.640;10.050;2023-12-20T12:00:15;100342.56;;;4.39;100.00
23574;BME280;11965;53.640;10.050;2023-12-20T12:02:43;100347.22;;;4.55;100.00
23574;BME280;11965;53.640;10.050;2023-12-20T12:05:11;100352.06;;;4.77;100.00
23574;BME280;11965;53.640;10.050;2023-12-20T12:07:38;100344.50;;;4.71;100.00
23574;BME280;11965;53.640;10.050;2023-12-20T12:10:06;100348.25;;;4.62;100.00
23574;BME280;11965;53.640;10.050;2023-12-20T12:12:33;100346.91;;;4.66;100.00
23574;BME280;11965;53.640;10.050;2023-12-20T12:15:01;100341.44;;;4.74;100.00
23574;BME280;11965;53.640;10.050;2023-12-20T12:17:28;100344.53;;;4.79;100.00
23574;BME280;11965;53.640;10.050;2023-12-20T12:20:02;100339.03;;;4.87;100.00
23574;BME280;11965;53.640;10.050;2023-12-20T12:22:32;100320.16;;;4.93;100.00
23574;BME280;11965;53.640;10.050;2023-12-20T12:25:09;100323.75;;;4.93;100.00
23574;BME280;11965;53.640;10.050;2023-12-20T12:27:36;100323.25;;;5.14;100.00
23574;BME280;11965;53.640;10.050;2023-12-20T12:30:05;100315.84;;;5.31;100.00
23574;BME280;11965;53.640;10.050;2023-12-20T12:32:34;100308.09;;;5.51;100.00
23574;BME280;11965;53.640;10.050;2023-12-20T12:35:03;100307.41;;;5.57;100.00
23574;BME280;11965;53.640;10.050;2023-12-20T12:37:33;100301.22;;;5.55;100.00
23574;BME280;11965;53.640;10.050;2023-12-20T12:40:01;100310.50;;;5.54;100.00
23574;BME280;11965;53.640;10.050;2023-12-20T12:42:28;100308.22;;;5.66;100.00